sensor_id;sensor_type;location;lat;lon;timestamp;P1;durP1;ratioP1;P2;durP2;ratioP2
50417;SDS011;36346;48.280;14.292;2023-06-26T00:00:42;8.05;;;8.05;;
50417;SDS011;36346;48.280;14.292;2023-06-26T00:03:10;8.10;;;8.10;;
50417;SDS011;36346;48.280;14.292;2023-06-26T00:05:42;8.21;;;8.21;;
50417;SDS011;36346;48.280;14.292;2023-06-26T00:08:10;8.53;;;8.53;;
50417;SDS011;36346;48.280;14.292;2023-06-26T00:10:38;8.39;;;8.39;;
50417;SDS011;36346;48.280;14.292;2023-06-26T00:13:06;8.30;;;8.30;;
50417;SDS011;36346;48.280;14.292;2023-06-26T00:15:34;8.07;;;8.07;;
50417;SDS011;36346;48.280;14.292;2023-06-26T00:18:03;8.57;;;8.57;;
50417;SDS011;36346;48.280;14.292;2023-06-26T00:20:31;8.31;;;8.31;;
50417;SDS011;36346;48.280;14.292;2023-06-26T00:23:01;8.61;;;8.61;;
50417;SDS011;36346;48.280;14.292;2023-06-26T00:25:31;8.46;;;8.46;;
50417;SDS011;36346;48.280;14.292;2023-06-26T00:27:59;8.38;;;8.38;;
50417;SDS011;36346;48.280;14.292;2023-06-26T00:30:27;8.92;;;8.92;;
50417;SDS011;36346;48.280;14.292;2023-06-26T00:32:57;9.55;;;9.55;;
50417;SDS011;36346;48.280;14.292;2023-06-26T00:35:25;8.82;;;8.82;;
50417;SDS011;36346;48.280;14.292;2023-06-26T00:37:53;8.29;;;8.29;;
50417;SDS011;36346;48.280;14.292;2023-06-26T00:40:21;8.75;;;8.75;;
50417;SDS011;36346;48.280;14.292;2023-06-26T00:42:49;8.45;;;8.45;;
50417;SDS011;36346;48.280;14.292;2023-06-26T00:45:17;8.28;;;8.28;;
50417;SDS011;36346;48.280;14.292;2023-06-26T00:48:01;8.17;;;8.17;;
50417;SDS011;36346;48.280;14.292;2023-06-26T00:50:30;8.47;;;8.47;;
50417;SDS011;36346;48.280;14.292;2023-06-26T00:52:58;8.95;;;8.95;;
50417;SDS011;36346;48.280;14.292;2023-06-26T00:55:28;8.54;;;8.54;;
50417;SDS011;36346;48.280;14.292;2023-06-26T00:57:56;8.56;;;8.56;;
50417;SDS011;36346;48.280;14.292;2023-06-26T01:00:28;8.42;;;8.42;;
50417;SDS011;36346;48.280;14.292;2023-06-26T01:02:57;8.52;;;8.52;;
50417;SDS011;36346;48.280;14.292;2023-06-26T01:05:28;8.61;;;8.61;;
50417;SDS011;36346;48.280;14.292;2023-06-26T01:07:57;8.23;;;8.23;;
50417;SDS011;36346;48.280;14.292;2023-06-26T01:10:26;8.77;;;8.77;;
50417;SDS011;36346;48.280;14.292;2023-06-26T01:12:57;8.86;;;8.86;;
50417;SDS011;36346;48.280;14.292;2023-06-26T01:15:25;8.70;;;8.70;;
50417;SDS011;36346;48.280;14.292;2023-06-26T01:17:53;8.63;;;8.63;;
50417;SDS011;36346;48.280;14.292;2023-06-26T01:20:27;8.69;;;8.69;;
50417;SDS011;36346;48.280;14.292;2023-06-26T01:28:26;8.78;;;8.78;;
50417;SDS011;36346;48.280;14.292;2023-06-26T01:30:57;9.26;;;9.26;;
50417;SDS011;36346;48.280;14.292;2023-06-26T01:33:26;9.20;;;9.20;;
50417;SDS011;36346;48.280;14.292;2023-06-26T01:35:54;9.35;;;9.35;;
50417;SDS011;36346;48.280;14.292;2023-06-26T01:38:22;9.92;;;9.92;;
50417;SDS011;36346;48.280;14.292;2023-06-26T01:40:51;9.48;;;9.48;;
50417;SDS011;36346;48.280;14.292;2023-06-26T01:45:54;9.90;;;9.90;;
50417;SDS011;36346;48.280;14.292;2023-06-26T01:48:30;9.92;;;9.92;;
50417;SDS011;36346;48.280;14.292;2023-06-26T01:51:07;10.10;;;10.10;;
50417;SDS011;36346;48.280;14.292;2023-06-26T01:53:36;9.60;;;9.60;;
50417;SDS011;36346;48.280;14.292;2023-06-26T01:56:13;9.88;;;9.88;;
50417;SDS011;36346;48.280;14.292;2023-06-26T01:58:43;9.55;;;9.55;;
50417;SDS011;36346;48.280;14.292;2023-06-26T02:01:13;10.25;;;10.25;;
50417;SDS011;36346;48.280;14.292;2023-06-26T02:03:41;10.11;;;10.11;;
50417;SDS011;36346;48.280;14.292;2023-06-26T02:06:09;9.99;;;9.99;;
50417;SDS011;36346;48.280;14.292;2023-06-26T02:08:37;10.33;;;10.33;;
50417;SDS011;36346;48.280;14.292;2023-06-26T02:11:05;10.21;;;10.21;;
50417;SDS011;36346;48.280;14.292;2023-06-26T02:13:33;10.36;;;10.36;;
50417;SDS011;36346;48.280;14.292;2023-06-26T02:16:01;9.98;;;9.98;;
50417;SDS011;36346;48.280;14.292;2023-06-26T02:18:29;9.61;;;9.61;;
50417;SDS011;36346;48.280;14.292;2023-06-26T02:20:58;9.73;;;9.73;;
50417;SDS011;36346;48.280;14.292;2023-06-26T02:23:26;9.50;;;9.50;;
50417;SDS011;36346;48.280;14.292;2023-06-26T02:25:54;9.70;;;9.70;;
50417;SDS011;36346;48.280;14.292;2023-06-26T02:28:22;9.52;;;9.52;;
50417;SDS011;36346;48.280;14.292;2023-06-26T02:30:50;9.63;;;9.62;;
50417;SDS011;36346;48.280;14.292;2023-06-26T02:33:18;9.81;;;9.81;;
50417;SDS011;36346;48.280;14.292;2023-06-26T02:35:49;9.88;;;9.88;;
50417;SDS011;36346;48.280;14.292;2023-06-26T02:38:18;9.42;;;9.42;;
50417;SDS011;36346;48.280;14.292;2023-06-26T02:40:47;9.85;;;9.85;;
50417;SDS011;36346;48.280;14.292;2023-06-26T02:43:16;9.25;;;9.25;;
50417;SDS011;36346;48.280;14.292;2023-06-26T02:45:45;10.00;;;9.99;;
50417;SDS011;36346;48.280;14.292;2023-06-26T02:48:13;9.66;;;9.66;;
50417;SDS011;36346;48.280;14.292;2023-06-26T02:50:42;9.35;;;9.35;;
50417;SDS011;36346;48.280;14.292;2023-06-26T02:53:14;9.72;;;9.72;;
50417;SDS011;36346;48.280;14.292;2023-06-26T02:55:45;9.83;;;9.83;;
50417;SDS011;36346;48.280;14.292;2023-06-26T02:58:16;9.79;;;9.79;;
50417;SDS011;36346;48.280;14.292;2023-06-26T03:00:44;9.96;;;9.96;;
50417;SDS011;36346;48.280;14.292;2023-06-26T03:03:16;9.77;;;9.77;;
50417;SDS011;36346;48.280;14.292;2023-06-26T03:05:44;9.46;;;9.46;;
50417;SDS011;36346;48.280;14.292;2023-06-26T03:08:12;10.52;;;10.52;;
50417;SDS011;36346;48.280;14.292;2023-06-26T03:10:40;10.21;;;10.21;;
50417;SDS011;36346;48.280;14.292;2023-06-26T03:13:10;10.41;;;10.41;;
50417;SDS011;36346;48.280;14.292;2023-06-26T03:15:38;10.34;;;10.34;;
50417;SDS011;36346;48.280;14.292;2023-06-26T03:18:06;11.04;;;11.04;;
50417;SDS011;36346;48.280;14.292;2023-06-26T03:20:34;11.37;;;11.37;;
50417;SDS011;36346;48.280;14.292;2023-06-26T03:23:02;10.67;;;10.67;;
50417;SDS011;36346;48.280;14.292;2023-06-26T03:25:31;10.83;;;10.83;;
50417;SDS011;36346;48.280;14.292;2023-06-26T03:28:23;10.78;;;10.78;;
50417;SDS011;36346;48.280;14.292;2023-06-26T03:30:51;11.22;;;11.22;;
50417;SDS011;36346;48.280;14.292;2023-06-26T03:33:19;10.61;;;10.61;;
50417;SDS011;36346;48.280;14.292;2023-06-26T03:35:48;10.80;;;10.80;;
50417;SDS011;36346;48.280;14.292;2023-06-26T03:38:16;11.10;;;11.10;;
50417;SDS011;36346;48.280;14.292;2023-06-26T03:40:45;10.67;;;10.67;;
50417;SDS011;36346;48.280;14.292;2023-06-26T03:43:13;10.83;;;10.83;;
50417;SDS011;36346;48.280;14.292;2023-06-26T03:45:58;11.90;;;11.84;;
50417;SDS011;36346;48.280;14.292;2023-06-26T03:48:27;11.74;;;11.74;;
50417;SDS011;36346;48.280;14.292;2023-06-26T03:50:55;11.75;;;11.75;;
50417;SDS011;36346;48.280;14.292;2023-06-26T03:53:24;12.00;;;12.00;;
50417;SDS011;36346;48.280;14.292;2023-06-26T03:55:52;11.94;;;11.94;;
50417;SDS011;36346;48.280;14.292;2023-06-26T03:58:22;11.70;;;11.70;;
50417;SDS011;36346;48.280;14.292;2023-06-26T04:00:50;11.57;;;11.57;;
50417;SDS011;36346;48.280;14.292;2023-06-26T04:03:19;11.83;;;11.83;;
50417;SDS011;36346;48.280;14.292;2023-06-26T04:05:47;11.94;;;11.94;;
50417;SDS011;36346;48.280;14.292;2023-06-26T04:08:15;12.28;;;12.24;;
50417;SDS011;36346;48.280;14.292;2023-06-26T04:10:43;12.38;;;12.38;;
50417;SDS011;36346;48.280;14.292;2023-06-26T04:13:13;13.02;;;13.02;;
50417;SDS011;36346;48.280;14.292;2023-06-26T04:15:42;13.87;;;13.79;;
50417;SDS011;36346;48.280;14.292;2023-06-26T04:18:10;12.73;;;12.70;;
50417;SDS011;36346;48.280;14.292;2023-06-26T04:20:38;12.49;;;12.49;;
50417;SDS011;36346;48.280;14.292;2023-06-26T04:23:07;12.66;;;12.66;;
50417;SDS011;36346;48.280;14.292;2023-06-26T04:25:35;13.07;;;13.07;;
50417;SDS011;36346;48.280;14.292;2023-06-26T04:28:05;12.87;;;12.87;;
50417;SDS011;36346;48.280;14.292;2023-06-26T04:30:33;12.84;;;12.84;;
50417;SDS011;36346;48.280;14.292;2023-06-26T04:33:02;12.78;;;12.78;;
50417;SDS011;36346;48.280;14.292;2023-06-26T04:35:31;13.35;;;13.35;;
50417;SDS011;36346;48.280;14.292;2023-06-26T04:38:04;13.30;;;13.30;;
50417;SDS011;36346;48.280;14.292;2023-06-26T04:40:32;13.11;;;13.05;;
50417;SDS011;36346;48.280;14.292;2023-06-26T04:43:00;13.12;;;13.12;;
50417;SDS011;36346;48.280;14.292;2023-06-26T04:45:28;13.78;;;13.77;;
50417;SDS011;36346;48.280;14.292;2023-06-26T04:47:56;13.72;;;13.71;;
50417;SDS011;36346;48.280;14.292;2023-06-26T04:50:25;13.59;;;13.59;;
50417;SDS011;36346;48.280;14.292;2023-06-26T04:52:53;13.32;;;13.28;;
50417;SDS011;36346;48.280;14.292;2023-06-26T04:55:23;13.78;;;13.61;;
50417;SDS011;36346;48.280;14.292;2023-06-26T04:57:51;13.53;;;13.38;;
50417;SDS011;36346;48.280;14.292;2023-06-26T05:00:20;13.78;;;13.71;;
50417;SDS011;36346;48.280;14.292;2023-06-26T05:02:48;13.29;;;13.29;;
50417;SDS011;36346;48.280;14.292;2023-06-26T05:05:16;13.32;;;13.26;;
50417;SDS011;36346;48.280;14.292;2023-06-26T05:07:44;13.40;;;13.39;;
50417;SDS011;36346;48.280;14.292;2023-06-26T05:10:12;13.29;;;13.29;;
50417;SDS011;36346;48.280;14.292;2023-06-26T05:12:41;13.16;;;13.16;;
50417;SDS011;36346;48.280;14.292;2023-06-26T05:15:09;13.04;;;13.04;;
50417;SDS011;36346;48.280;14.292;2023-06-26T05:17:37;13.11;;;13.10;;
50417;SDS011;36346;48.280;14.292;2023-06-26T05:20:05;12.72;;;12.71;;
50417;SDS011;36346;48.280;14.292;2023-06-26T05:22:33;12.04;;;12.04;;
50417;SDS011;36346;48.280;14.292;2023-06-26T05:25:02;12.70;;;12.65;;
50417;SDS011;36346;48.280;14.292;2023-06-26T05:27:32;11.89;;;11.89;;
50417;SDS011;36346;48.280;14.292;2023-06-26T05:30:01;12.00;;;12.00;;
50417;SDS011;36346;48.280;14.292;2023-06-26T05:32:29;12.50;;;12.50;;
50417;SDS011;36346;48.280;14.292;2023-06-26T05:34:58;12.50;;;12.50;;
50417;SDS011;36346;48.280;14.292;2023-06-26T05:37:30;12.59;;;12.58;;
50417;SDS011;36346;48.280;14.292;2023-06-26T05:39:59;14.00;;;14.00;;
50417;SDS011;36346;48.280;14.292;2023-06-26T05:42:27;13.24;;;13.24;;
50417;SDS011;36346;48.280;14.292;2023-06-26T05:44:56;13.17;;;13.17;;
50417;SDS011;36346;48.280;14.292;2023-06-26T05:47:24;13.02;;;13.02;;
50417;SDS011;36346;48.280;14.292;2023-06-26T05:49:52;12.67;;;12.67;;
50417;SDS011;36346;48.280;14.292;2023-06-26T05:52:20;12.09;;;12.09;;
50417;SDS011;36346;48.280;14.292;2023-06-26T05:54:48;12.05;;;12.05;;
50417;SDS011;36346;48.280;14.292;2023-06-26T05:57:16;12.49;;;12.49;;
50417;SDS011;36346;48.280;14.292;2023-06-26T05:59:44;12.20;;;12.20;;
50417;SDS011;36346;48.280;14.292;2023-06-26T06:02:14;12.38;;;12.38;;
50417;SDS011;36346;48.280;14.292;2023-06-26T06:04:42;12.37;;;12.37;;
50417;SDS011;36346;48.280;14.292;2023-06-26T06:07:11;12.63;;;12.63;;
50417;SDS011;36346;48.280;14.292;2023-06-26T06:09:39;12.61;;;12.61;;
50417;SDS011;36346;48.280;14.292;2023-06-26T06:12:08;12.51;;;12.51;;
50417;SDS011;36346;48.280;14.292;2023-06-26T06:14:36;12.21;;;12.21;;
50417;SDS011;36346;48.280;14.292;2023-06-26T06:17:04;13.87;;;13.87;;
50417;SDS011;36346;48.280;14.292;2023-06-26T06:19:32;13.24;;;13.24;;
50417;SDS011;36346;48.280;14.292;2023-06-26T06:22:00;15.26;;;15.26;;
50417;SDS011;36346;48.280;14.292;2023-06-26T06:24:27;12.51;;;12.51;;
50417;SDS011;36346;48.280;14.292;2023-06-26T06:26:55;11.84;;;11.84;;
50417;SDS011;36346;48.280;14.292;2023-06-26T06:29:23;11.24;;;11.24;;
50417;SDS011;36346;48.280;14.292;2023-06-26T06:31:51;12.54;;;12.54;;
50417;SDS011;36346;48.280;14.292;2023-06-26T06:34:19;12.67;;;12.67;;
50417;SDS011;36346;48.280;14.292;2023-06-26T06:36:47;11.72;;;11.72;;
50417;SDS011;36346;48.280;14.292;2023-06-26T06:39:16;13.03;;;13.03;;
50417;SDS011;36346;48.280;14.292;2023-06-26T06:41:44;12.69;;;12.69;;
50417;SDS011;36346;48.280;14.292;2023-06-26T06:44:12;13.21;;;13.21;;
50417;SDS011;36346;48.280;14.292;2023-06-26T06:46:40;11.63;;;11.63;;
50417;SDS011;36346;48.280;14.292;2023-06-26T06:49:08;12.09;;;12.09;;
50417;SDS011;36346;48.280;14.292;2023-06-26T06:51:36;11.36;;;11.36;;
50417;SDS011;36346;48.280;14.292;2023-06-26T06:54:04;11.28;;;11.28;;
50417;SDS011;36346;48.280;14.292;2023-06-26T06:56:32;11.82;;;11.82;;
50417;SDS011;36346;48.280;14.292;2023-06-26T06:59:00;11.46;;;11.46;;
50417;SDS011;36346;48.280;14.292;2023-06-26T07:01:28;11.54;;;11.54;;
50417;SDS011;36346;48.280;14.292;2023-06-26T07:03:56;11.26;;;11.26;;
50417;SDS011;36346;48.280;14.292;2023-06-26T07:06:25;12.00;;;12.00;;
50417;SDS011;36346;48.280;14.292;2023-06-26T07:08:53;13.09;;;13.09;;
50417;SDS011;36346;48.280;14.292;2023-06-26T07:11:21;12.84;;;12.84;;
50417;SDS011;36346;48.280;14.292;2023-06-26T07:13:49;11.33;;;11.33;;
50417;SDS011;36346;48.280;14.292;2023-06-26T07:16:17;11.41;;;11.41;;
50417;SDS011;36346;48.280;14.292;2023-06-26T07:18:46;10.80;;;10.79;;
50417;SDS011;36346;48.280;14.292;2023-06-26T07:21:14;11.01;;;11.01;;
50417;SDS011;36346;48.280;14.292;2023-06-26T07:23:42;16.19;;;16.19;;
50417;SDS011;36346;48.280;14.292;2023-06-26T07:26:10;12.45;;;12.45;;
50417;SDS011;36346;48.280;14.292;2023-06-26T07:28:38;11.47;;;11.47;;
50417;SDS011;36346;48.280;14.292;2023-06-26T07:31:06;13.00;;;12.98;;
50417;SDS011;36346;48.280;14.292;2023-06-26T07:33:34;10.88;;;10.88;;
50417;SDS011;36346;48.280;14.292;2023-06-26T07:36:02;13.16;;;13.16;;
50417;SDS011;36346;48.280;14.292;2023-06-26T07:38:30;11.86;;;11.86;;
50417;SDS011;36346;48.280;14.292;2023-06-26T07:40:58;10.09;;;10.09;;
50417;SDS011;36346;48.280;14.292;2023-06-26T07:43:26;10.67;;;10.67;;
50417;SDS011;36346;48.280;14.292;2023-06-26T07:45:53;11.83;;;11.83;;
50417;SDS011;36346;48.280;14.292;2023-06-26T07:48:22;11.55;;;11.55;;
50417;SDS011;36346;48.280;14.292;2023-06-26T07:50:49;10.01;;;10.01;;
50417;SDS011;36346;48.280;14.292;2023-06-26T07:53:17;10.95;;;10.95;;
50417;SDS011;36346;48.280;14.292;2023-06-26T07:55:45;10.65;;;10.65;;
50417;SDS011;36346;48.280;14.292;2023-06-26T07:58:13;9.40;;;9.40;;
50417;SDS011;36346;48.280;14.292;2023-06-26T08:00:41;9.80;;;9.80;;
50417;SDS011;36346;48.280;14.292;2023-06-26T08:03:09;10.35;;;10.35;;
50417;SDS011;36346;48.280;14.292;2023-06-26T08:05:52;10.20;;;10.20;;
50417;SDS011;36346;48.280;14.292;2023-06-26T08:08:20;9.58;;;9.58;;
50417;SDS011;36346;48.280;14.292;2023-06-26T08:10:47;9.72;;;9.72;;
50417;SDS011;36346;48.280;14.292;2023-06-26T08:13:15;9.73;;;9.73;;
50417;SDS011;36346;48.280;14.292;2023-06-26T08:15:44;9.52;;;9.52;;
50417;SDS011;36346;48.280;14.292;2023-06-26T08:18:12;9.29;;;9.29;;
50417;SDS011;36346;48.280;14.292;2023-06-26T08:20:40;9.33;;;9.33;;
50417;SDS011;36346;48.280;14.292;2023-06-26T08:23:08;9.70;;;9.70;;
50417;SDS011;36346;48.280;14.292;2023-06-26T08:25:36;10.22;;;10.22;;
50417;SDS011;36346;48.280;14.292;2023-06-26T08:28:04;9.54;;;9.54;;
50417;SDS011;36346;48.280;14.292;2023-06-26T08:30:32;10.88;;;10.88;;
50417;SDS011;36346;48.280;14.292;2023-06-26T08:33:00;11.58;;;11.57;;
50417;SDS011;36346;48.280;14.292;2023-06-26T08:35:28;13.04;;;13.04;;
50417;SDS011;36346;48.280;14.292;2023-06-26T08:37:56;10.37;;;10.37;;
50417;SDS011;36346;48.280;14.292;2023-06-26T08:40:24;11.95;;;11.95;;
50417;SDS011;36346;48.280;14.292;2023-06-26T08:42:53;11.07;;;11.07;;
50417;SDS011;36346;48.280;14.292;2023-06-26T08:45:21;12.02;;;12.02;;
50417;SDS011;36346;48.280;14.292;2023-06-26T08:47:51;10.58;;;10.58;;
50417;SDS011;36346;48.280;14.292;2023-06-26T08:50:22;10.24;;;10.24;;
50417;SDS011;36346;48.280;14.292;2023-06-26T08:55:28;13.12;;;13.12;;
50417;SDS011;36346;48.280;14.292;2023-06-26T08:57:56;13.14;;;13.14;;
50417;SDS011;36346;48.280;14.292;2023-06-26T09:00:25;12.71;;;12.71;;
50417;SDS011;36346;48.280;14.292;2023-06-26T09:02:53;10.86;;;10.86;;
50417;SDS011;36346;48.280;14.292;2023-06-26T09:05:21;9.99;;;9.99;;
50417;SDS011;36346;48.280;14.292;2023-06-26T09:07:49;9.99;;;9.97;;
50417;SDS011;36346;48.280;14.292;2023-06-26T09:10:17;9.81;;;9.80;;
50417;SDS011;36346;48.280;14.292;2023-06-26T09:12:46;9.16;;;9.16;;
50417;SDS011;36346;48.280;14.292;2023-06-26T09:15:15;9.84;;;9.84;;
50417;SDS011;36346;48.280;14.292;2023-06-26T09:17:48;10.40;;;10.40;;
50417;SDS011;36346;48.280;14.292;2023-06-26T09:20:18;17.94;;;17.89;;
50417;SDS011;36346;48.280;14.292;2023-06-26T09:22:47;15.14;;;15.14;;
50417;SDS011;36346;48.280;14.292;2023-06-26T09:25:16;11.14;;;11.14;;
50417;SDS011;36346;48.280;14.292;2023-06-26T09:27:44;10.03;;;10.03;;
50417;SDS011;36346;48.280;14.292;2023-06-26T09:30:12;12.27;;;12.27;;
50417;SDS011;36346;48.280;14.292;2023-06-26T09:32:45;13.17;;;13.17;;
50417;SDS011;36346;48.280;14.292;2023-06-26T09:35:13;11.21;;;11.21;;
50417;SDS011;36346;48.280;14.292;2023-06-26T09:37:42;16.55;;;16.55;;
50417;SDS011;36346;48.280;14.292;2023-06-26T09:40:11;10.85;;;10.83;;
50417;SDS011;36346;48.280;14.292;2023-06-26T09:42:39;9.85;;;9.85;;
50417;SDS011;36346;48.280;14.292;2023-06-26T09:45:07;10.72;;;10.72;;
50417;SDS011;36346;48.280;14.292;2023-06-26T09:47:35;12.41;;;12.41;;
50417;SDS011;36346;48.280;14.292;2023-06-26T09:50:03;10.67;;;10.67;;
50417;SDS011;36346;48.280;14.292;2023-06-26T09:52:35;11.26;;;11.26;;
50417;SDS011;36346;48.280;14.292;2023-06-26T09:55:09;12.30;;;12.30;;
50417;SDS011;36346;48.280;14.292;2023-06-26T09:57:38;9.63;;;9.63;;
50417;SDS011;36346;48.280;14.292;2023-06-26T10:00:07;10.72;;;10.72;;
50417;SDS011;36346;48.280;14.292;2023-06-26T10:02:41;9.26;;;9.26;;
50417;SDS011;36346;48.280;14.292;2023-06-26T10:05:09;10.29;;;10.29;;
50417;SDS011;36346;48.280;14.292;2023-06-26T10:07:37;9.86;;;9.86;;
50417;SDS011;36346;48.280;14.292;2023-06-26T10:10:07;14.08;;;14.08;;
50417;SDS011;36346;48.280;14.292;2023-06-26T10:12:36;12.80;;;12.80;;
50417;SDS011;36346;48.280;14.292;2023-06-26T10:15:04;12.68;;;12.68;;
50417;SDS011;36346;48.280;14.292;2023-06-26T10:17:34;22.74;;;22.74;;
50417;SDS011;36346;48.280;14.292;2023-06-26T10:20:04;23.91;;;23.91;;
50417;SDS011;36346;48.280;14.292;2023-06-26T10:22:36;11.43;;;11.43;;
50417;SDS011;36346;48.280;14.292;2023-06-26T10:25:09;10.89;;;10.89;;
50417;SDS011;36346;48.280;14.292;2023-06-26T10:27:39;14.16;;;14.16;;
50417;SDS011;36346;48.280;14.292;2023-06-26T10:30:13;12.81;;;12.81;;
50417;SDS011;36346;48.280;14.292;2023-06-26T10:32:44;11.87;;;11.87;;
50417;SDS011;36346;48.280;14.292;2023-06-26T10:35:14;19.29;;;19.29;;
50417;SDS011;36346;48.280;14.292;2023-06-26T10:37:46;16.56;;;16.56;;
50417;SDS011;36346;48.280;14.292;2023-06-26T10:40:21;11.76;;;11.76;;
50417;SDS011;36346;48.280;14.292;2023-06-26T10:43:05;12.19;;;12.19;;
50417;SDS011;36346;48.280;14.292;2023-06-26T10:45:38;9.28;;;9.28;;
50417;SDS011;36346;48.280;14.292;2023-06-26T10:48:15;9.48;;;9.48;;
50417;SDS011;36346;48.280;14.292;2023-06-26T10:50:43;8.87;;;8.87;;
50417;SDS011;36346;48.280;14.292;2023-06-26T10:55:51;22.99;;;22.99;;
50417;SDS011;36346;48.280;14.292;2023-06-26T11:03:40;9.16;;;9.16;;
50417;SDS011;36346;48.280;14.292;2023-06-26T11:06:09;11.68;;;11.68;;
50417;SDS011;36346;48.280;14.292;2023-06-26T11:08:51;15.11;;;15.11;;
50417;SDS011;36346;48.280;14.292;2023-06-26T11:11:54;19.13;;;19.13;;
50417;SDS011;36346;48.280;14.292;2023-06-26T11:14:21;15.33;;;15.33;;
50417;SDS011;36346;48.280;14.292;2023-06-26T11:16:51;15.12;;;15.12;;
50417;SDS011;36346;48.280;14.292;2023-06-26T11:19:20;10.38;;;10.38;;
50417;SDS011;36346;48.280;14.292;2023-06-26T11:21:48;7.25;;;7.25;;
50417;SDS011;36346;48.280;14.292;2023-06-26T11:24:16;7.39;;;7.39;;
50417;SDS011;36346;48.280;14.292;2023-06-26T11:26:45;9.31;;;9.31;;
50417;SDS011;36346;48.280;14.292;2023-06-26T11:29:14;8.86;;;8.86;;
50417;SDS011;36346;48.280;14.292;2023-06-26T11:31:42;7.78;;;7.78;;
50417;SDS011;36346;48.280;14.292;2023-06-26T11:34:11;7.03;;;7.03;;
50417;SDS011;36346;48.280;14.292;2023-06-26T11:36:43;7.09;;;7.09;;
50417;SDS011;36346;48.280;14.292;2023-06-26T11:39:14;7.20;;;7.20;;
50417;SDS011;36346;48.280;14.292;2023-06-26T11:41:41;7.04;;;7.04;;
50417;SDS011;36346;48.280;14.292;2023-06-26T11:44:10;7.21;;;7.21;;
50417;SDS011;36346;48.280;14.292;2023-06-26T11:46:38;6.91;;;6.91;;
50417;SDS011;36346;48.280;14.292;2023-06-26T11:49:06;7.89;;;7.89;;
50417;SDS011;36346;48.280;14.292;2023-06-26T11:51:35;10.34;;;10.34;;
50417;SDS011;36346;48.280;14.292;2023-06-26T11:54:06;9.37;;;9.37;;
50417;SDS011;36346;48.280;14.292;2023-06-26T11:56:33;19.51;;;19.51;;
50417;SDS011;36346;48.280;14.292;2023-06-26T11:59:04;15.06;;;15.06;;
50417;SDS011;36346;48.280;14.292;2023-06-26T12:01:39;9.01;;;9.01;;
50417;SDS011;36346;48.280;14.292;2023-06-26T12:04:09;13.04;;;13.04;;
50417;SDS011;36346;48.280;14.292;2023-06-26T12:06:40;9.08;;;9.08;;
50417;SDS011;36346;48.280;14.292;2023-06-26T12:09:11;7.04;;;7.04;;
50417;SDS011;36346;48.280;14.292;2023-06-26T12:11:41;7.57;;;7.57;;
50417;SDS011;36346;48.280;14.292;2023-06-26T12:14:11;7.25;;;7.25;;
50417;SDS011;36346;48.280;14.292;2023-06-26T12:16:41;6.38;;;6.38;;
50417;SDS011;36346;48.280;14.292;2023-06-26T12:19:10;5.99;;;5.99;;
50417;SDS011;36346;48.280;14.292;2023-06-26T12:24:10;4.94;;;4.94;;
50417;SDS011;36346;48.280;14.292;2023-06-26T12:26:42;5.16;;;5.16;;
50417;SDS011;36346;48.280;14.292;2023-06-26T12:29:15;5.35;;;5.35;;
50417;SDS011;36346;48.280;14.292;2023-06-26T12:31:52;5.14;;;5.14;;
50417;SDS011;36346;48.280;14.292;2023-06-26T12:34:20;5.23;;;5.23;;
50417;SDS011;36346;48.280;14.292;2023-06-26T12:37:01;5.51;;;5.51;;
50417;SDS011;36346;48.280;14.292;2023-06-26T12:39:44;5.66;;;5.66;;
50417;SDS011;36346;48.280;14.292;2023-06-26T12:42:35;5.56;;;5.56;;
50417;SDS011;36346;48.280;14.292;2023-06-26T12:45:10;5.72;;;5.72;;
50417;SDS011;36346;48.280;14.292;2023-06-26T12:48:08;5.45;;;5.45;;
50417;SDS011;36346;48.280;14.292;2023-06-26T12:50:43;5.93;;;5.93;;
50417;SDS011;36346;48.280;14.292;2023-06-26T12:53:12;6.25;;;6.25;;
50417;SDS011;36346;48.280;14.292;2023-06-26T12:55:41;6.22;;;6.22;;
50417;SDS011;36346;48.280;14.292;2023-06-26T12:58:09;6.44;;;6.44;;
50417;SDS011;36346;48.280;14.292;2023-06-26T13:00:37;6.38;;;6.38;;
50417;SDS011;36346;48.280;14.292;2023-06-26T13:03:05;6.46;;;6.46;;
50417;SDS011;36346;48.280;14.292;2023-06-26T13:05:38;6.12;;;6.12;;
50417;SDS011;36346;48.280;14.292;2023-06-26T13:08:05;6.40;;;6.40;;
50417;SDS011;36346;48.280;14.292;2023-06-26T13:10:33;6.35;;;6.35;;
50417;SDS011;36346;48.280;14.292;2023-06-26T13:13:03;7.91;;;7.91;;
50417;SDS011;36346;48.280;14.292;2023-06-26T13:15:31;7.06;;;7.06;;
50417;SDS011;36346;48.280;14.292;2023-06-26T13:17:59;6.25;;;6.25;;
50417;SDS011;36346;48.280;14.292;2023-06-26T13:20:27;6.43;;;6.43;;
50417;SDS011;36346;48.280;14.292;2023-06-26T13:22:55;6.72;;;6.72;;
50417;SDS011;36346;48.280;14.292;2023-06-26T13:25:24;6.74;;;6.74;;
50417;SDS011;36346;48.280;14.292;2023-06-26T13:27:52;6.52;;;6.52;;
50417;SDS011;36346;48.280;14.292;2023-06-26T13:30:21;6.49;;;6.49;;
50417;SDS011;36346;48.280;14.292;2023-06-26T13:32:49;6.37;;;6.37;;
50417;SDS011;36346;48.280;14.292;2023-06-26T13:35:17;6.09;;;6.09;;
50417;SDS011;36346;48.280;14.292;2023-06-26T13:37:45;6.20;;;6.20;;
50417;SDS011;36346;48.280;14.292;2023-06-26T13:40:14;6.64;;;6.64;;
50417;SDS011;36346;48.280;14.292;2023-06-26T13:42:42;7.44;;;7.44;;
50417;SDS011;36346;48.280;14.292;2023-06-26T13:45:12;7.16;;;7.16;;
50417;SDS011;36346;48.280;14.292;2023-06-26T13:47:57;6.97;;;6.97;;
50417;SDS011;36346;48.280;14.292;2023-06-26T13:50:25;6.84;;;6.84;;
50417;SDS011;36346;48.280;14.292;2023-06-26T13:53:11;6.42;;;6.42;;
50417;SDS011;36346;48.280;14.292;2023-06-26T13:55:40;6.92;;;6.92;;
50417;SDS011;36346;48.280;14.292;2023-06-26T13:58:09;6.74;;;6.74;;
50417;SDS011;36346;48.280;14.292;2023-06-26T14:00:38;6.71;;;6.71;;
50417;SDS011;36346;48.280;14.292;2023-06-26T14:03:06;6.49;;;6.49;;
50417;SDS011;36346;48.280;14.292;2023-06-26T14:05:35;6.73;;;6.73;;
50417;SDS011;36346;48.280;14.292;2023-06-26T14:08:07;6.82;;;6.82;;
50417;SDS011;36346;48.280;14.292;2023-06-26T14:10:36;6.86;;;6.86;;
50417;SDS011;36346;48.280;14.292;2023-06-26T14:13:05;6.77;;;6.77;;
50417;SDS011;36346;48.280;14.292;2023-06-26T14:15:33;6.89;;;6.89;;
50417;SDS011;36346;48.280;14.292;2023-06-26T14:18:01;6.76;;;6.76;;
50417;SDS011;36346;48.280;14.292;2023-06-26T14:20:30;6.56;;;6.56;;
50417;SDS011;36346;48.280;14.292;2023-06-26T14:23:00;6.30;;;6.30;;
50417;SDS011;36346;48.280;14.292;2023-06-26T14:25:28;6.21;;;6.21;;
50417;SDS011;36346;48.280;14.292;2023-06-26T14:27:57;6.32;;;6.32;;
50417;SDS011;36346;48.280;14.292;2023-06-26T14:30:26;6.58;;;6.58;;
50417;SDS011;36346;48.280;14.292;2023-06-26T14:32:54;6.78;;;6.78;;
50417;SDS011;36346;48.280;14.292;2023-06-26T14:35:22;6.57;;;6.57;;
50417;SDS011;36346;48.280;14.292;2023-06-26T14:37:50;6.75;;;6.75;;
50417;SDS011;36346;48.280;14.292;2023-06-26T14:40:19;6.70;;;6.70;;
50417;SDS011;36346;48.280;14.292;2023-06-26T14:42:47;6.39;;;6.39;;
50417;SDS011;36346;48.280;14.292;2023-06-26T14:45:15;6.72;;;6.72;;
50417;SDS011;36346;48.280;14.292;2023-06-26T14:47:44;7.45;;;7.45;;
50417;SDS011;36346;48.280;14.292;2023-06-26T14:50:12;6.59;;;6.59;;
50417;SDS011;36346;48.280;14.292;2023-06-26T14:52:40;6.43;;;6.43;;
50417;SDS011;36346;48.280;14.292;2023-06-26T14:55:08;6.07;;;6.07;;